Minneapolis, Minnesota
Traffic Map
Current Weather Conditions
Minneapolis, Minnesota
Broken Clouds
Broken Clouds
18°
Feels Like: 18°
Wind Chill: 18° Ceiling: 30000
Heat Index: 18° Visibility: 10mi
Dew Point: 14° Wind: 7mph
Humidity: 78% Direction: 150° (SSE)
Pressure: 30.07in Gusts: 0mph
Raw Report DataKMSP 230453Z 15006KT 10SM BKN300 18/14 A3007 RMK AO2 SLP180 T01830144
Traffic Incident Summary
Active as of:
Severity:
Category:
InformationThere was an issue retrieving the traffic information for this location. Please try a different location or try again shortly.
Advertisements